Time;durP1;ratioP1;P1;durP2;ratioP2;P2;SDS_P1;SDS_P2;PMS_P1;PMS_P2;Temp;Humidity;BMP_temperature;BMP_pressure;BME280_temperature;BME280_humidity;BME280_pressure;Samples;Min_cycle;Max_cycle;Signal;HPM_P1;HPM_P2
2023/10/30 00:00:09;;;;;;;4.20;1.52;;;10.70;99.90;;;;;;5030474;28;20098;-57
2023/10/30 00:02:36;;;;;;;8.38;1.27;;;10.60;99.90;;;;;;5030239;28;20051;-58
2023/10/30 00:05:02;;;;;;;8.30;1.58;;;10.60;99.90;;;;;;5029011;28;20049;-57
2023/10/30 00:07:28;;;;;;;7.55;2.00;;;10.60;99.90;;;;;;5016099;28;20040;-56
2023/10/30 00:09:54;;;;;;;5.25;1.50;;;10.50;99.90;;;;;;5033614;28;20040;-56
2023/10/30 00:12:20;;;;;;;5.88;1.60;;;10.50;99.90;;;;;;5027384;28;20271;-57
2023/10/30 00:14:45;;;;;;;7.25;2.25;;;10.50;99.90;;;;;;5034206;28;20086;-55
2023/10/30 00:17:11;;;;;;;9.23;2.28;;;10.50;99.90;;;;;;5010607;28;20040;-57
2023/10/30 00:19:37;;;;;;;9.45;3.55;;;10.40;99.90;;;;;;5008643;28;20544;-57
2023/10/30 00:22:03;;;;;;;9.02;4.40;;;10.50;99.90;;;;;;5028127;28;20052;-57
2023/10/30 00:24:29;;;;;;;11.65;4.57;;;10.50;99.90;;;;;;5012108;28;20123;-56
2023/10/30 00:26:55;;;;;;;5.28;2.20;;;10.40;99.90;;;;;;5025370;28;20059;-57
2023/10/30 00:29:21;;;;;;;6.55;2.00;;;10.40;99.90;;;;;;5021096;28;20487;-57
2023/10/30 00:31:47;;;;;;;8.13;1.50;;;10.40;99.90;;;;;;5021833;28;20048;-57
2023/10/30 00:34:13;;;;;;;11.63;1.75;;;10.30;99.90;;;;;;5024767;28;20048;-56
2023/10/30 00:36:39;;;;;;;5.75;1.33;;;10.30;99.90;;;;;;5024822;28;20049;-58
2023/10/30 00:39:05;;;;;;;9.65;2.17;;;10.30;99.90;;;;;;5006543;28;20649;-56
2023/10/30 00:41:31;;;;;;;6.40;1.80;;;10.30;99.90;;;;;;5025931;28;20041;-56
2023/10/30 00:43:57;;;;;;;6.68;2.25;;;10.30;99.90;;;;;;5003710;28;20399;-57
2023/10/30 00:46:23;;;;;;;4.65;1.63;;;10.20;99.90;;;;;;5003975;28;20522;-58
2023/10/30 00:48:49;;;;;;;6.75;1.80;;;10.20;99.90;;;;;;5021969;28;20055;-56
2023/10/30 00:51:15;;;;;;;6.63;1.83;;;10.20;99.90;;;;;;5022787;28;20041;-57
2023/10/30 00:53:41;;;;;;;7.75;3.10;;;10.20;99.90;;;;;;5033243;28;20055;-57
2023/10/30 00:56:07;;;;;;;7.00;2.67;;;10.20;99.90;;;;;;5034946;28;20033;-56
2023/10/30 00:58:34;;;;;;;9.27;2.83;;;10.10;99.90;;;;;;5035948;28;20044;-56
2023/10/30 01:01:00;;;;;;;10.98;4.60;;;10.10;99.90;;;;;;5034400;28;20067;-55
2023/10/30 01:03:26;;;;;;;13.60;5.45;;;10.10;99.90;;;;;;5018796;28;20072;-58
2023/10/30 01:06:01;;;;;;;4.97;1.60;;;10.10;99.90;;;;;;5035016;28;20037;-58
2023/10/30 01:08:27;;;;;;;4.45;1.23;;;10.10;99.90;;;;;;5014494;28;20166;-58
2023/10/30 01:10:56;;;;;;;5.47;1.33;;;10.00;99.90;;;;;;5034343;28;20547;-57
2023/10/30 01:13:23;;;;;;;5.15;1.17;;;10.00;99.90;;;;;;5031932;28;20049;-57
2023/10/30 01:15:54;;;;;;;3.85;1.20;;;10.00;99.90;;;;;;5034832;28;20072;-58
2023/10/30 01:18:20;;;;;;;3.30;1.10;;;10.00;99.90;;;;;;5031881;28;20072;-57
2023/10/30 01:20:49;;;;;;;6.57;1.30;;;10.00;99.90;;;;;;5030274;28;20051;-56
2023/10/30 01:23:15;;;;;;;6.82;1.20;;;9.90;99.90;;;;;;5035520;28;20481;-57
2023/10/30 01:25:41;;;;;;;6.80;1.75;;;9.90;99.90;;;;;;5034051;28;20070;-55
2023/10/30 01:28:07;;;;;;;4.78;1.45;;;9.90;99.90;;;;;;5015692;28;20106;-57
2023/10/30 01:30:33;;;;;;;6.72;1.75;;;9.90;99.90;;;;;;5032585;28;20043;-57
2023/10/30 01:32:59;;;;;;;5.35;2.88;;;9.90;99.90;;;;;;5037875;28;20411;-58
2023/10/30 01:35:25;;;;;;;8.13;3.25;;;9.80;99.90;;;;;;5035401;28;20037;-58
2023/10/30 01:37:51;;;;;;;4.75;2.03;;;9.80;99.90;;;;;;5028241;28;20048;-58
2023/10/30 01:40:16;;;;;;;3.67;1.40;;;9.80;99.90;;;;;;5000312;28;20049;-57
2023/10/30 01:42:42;;;;;;;2.50;1.10;;;9.80;99.90;;;;;;5025965;28;20162;-57
2023/10/30 01:45:08;;;;;;;3.25;1.15;;;9.80;99.90;;;;;;5029726;28;20048;-56
2023/10/30 01:47:34;;;;;;;2.95;1.10;;;9.80;99.90;;;;;;5027088;28;20045;-58
2023/10/30 01:50:01;;;;;;;6.22;2.60;;;9.80;99.90;;;;;;5022433;28;20727;-59
2023/10/30 01:52:30;;;;;;;2.72;1.60;;;9.80;99.90;;;;;;5027896;28;20045;-57
2023/10/30 01:54:57;;;;;;;10.50;3.67;;;9.80;99.90;;;;;;5022809;28;20384;-58
2023/10/30 01:57:25;;;;;;;6.80;4.90;;;9.80;99.90;;;;;;5023808;28;20125;-56
2023/10/30 01:59:51;;;;;;;10.43;5.65;;;9.80;99.90;;;;;;5009657;28;20045;-58
2023/10/30 02:02:21;;;;;;;6.53;5.00;;;9.70;99.90;;;;;;5024563;28;20051;-58
2023/10/30 02:04:47;;;;;;;6.03;3.65;;;9.80;99.90;;;;;;5024082;28;20565;-58
2023/10/30 02:07:14;;;;;;;11.43;5.85;;;9.80;99.90;;;;;;5026163;28;20041;-56
2023/10/30 02:09:40;;;;;;;11.45;6.70;;;9.80;99.90;;;;;;5030015;28;20047;-55
2023/10/30 02:12:06;;;;;;;11.10;5.13;;;9.80;99.90;;;;;;5035100;28;20503;-57
2023/10/30 02:14:32;;;;;;;12.30;6.53;;;9.70;99.90;;;;;;5029298;28;20049;-55
2023/10/30 02:16:58;;;;;;;8.43;5.18;;;9.70;99.90;;;;;;5037976;28;20048;-58
2023/10/30 02:19:26;;;;;;;6.15;2.78;;;9.70;99.90;;;;;;5021637;28;20032;-57
2023/10/30 02:21:53;;;;;;;4.35;1.92;;;9.70;99.90;;;;;;5036023;28;20537;-58
2023/10/30 02:24:20;;;;;;;3.88;1.42;;;9.70;99.90;;;;;;5019331;28;20041;-58
2023/10/30 02:26:47;;;;;;;5.30;2.40;;;9.70;99.90;;;;;;5040001;28;21075;-58
2023/10/30 02:29:12;;;;;;;6.72;2.75;;;9.70;99.90;;;;;;5040319;28;20040;-57
2023/10/30 02:31:38;;;;;;;8.32;2.50;;;9.60;99.90;;;;;;5012963;28;20076;-57
2023/10/30 02:34:04;;;;;;;6.03;2.10;;;9.60;99.90;;;;;;5035913;28;20479;-56
2023/10/30 02:36:30;;;;;;;6.10;2.10;;;9.60;99.90;;;;;;5037185;28;20491;-56
2023/10/30 02:38:56;;;;;;;6.13;2.10;;;9.60;99.90;;;;;;5017259;28;20961;-58
2023/10/30 02:41:22;;;;;;;5.70;2.10;;;9.60;99.90;;;;;;5035258;28;20434;-56
2023/10/30 02:43:47;;;;;;;8.35;2.65;;;9.60;99.90;;;;;;5035637;28;20041;-57
2023/10/30 02:46:13;;;;;;;9.68;2.72;;;9.60;99.90;;;;;;4999720;28;20078;-57
2023/10/30 02:48:39;;;;;;;8.25;2.60;;;9.60;99.90;;;;;;5031025;28;20037;-57
2023/10/30 02:51:05;;;;;;;6.55;2.42;;;9.60;99.90;;;;;;5036549;28;20083;-56
2023/10/30 02:53:31;;;;;;;6.30;2.40;;;9.60;99.90;;;;;;5031957;28;20770;-58
2023/10/30 02:55:58;;;;;;;9.52;2.55;;;9.70;99.90;;;;;;5014329;28;20044;-56
2023/10/30 02:58:24;;;;;;;9.55;2.22;;;9.60;99.90;;;;;;5016855;28;20399;-56
2023/10/30 03:00:56;;;;;;;5.97;2.15;;;9.60;99.90;;;;;;5029910;28;20049;-57
2023/10/30 03:03:21;;;;;;;7.30;2.22;;;9.60;99.90;;;;;;5035512;28;20500;-56
2023/10/30 03:05:47;;;;;;;10.35;2.65;;;9.60;99.90;;;;;;5029862;28;20064;-57
2023/10/30 03:08:13;;;;;;;7.28;2.20;;;9.60;99.90;;;;;;5030949;28;21071;-56
2023/10/30 03:10:39;;;;;;;6.55;2.50;;;9.60;99.90;;;;;;5032989;28;20044;-57
2023/10/30 03:13:04;;;;;;;5.65;1.95;;;9.60;99.90;;;;;;5030745;28;21340;-57
2023/10/30 03:15:30;;;;;;;10.05;2.90;;;9.60;99.90;;;;;;5032219;28;20123;-55
2023/10/30 03:17:56;;;;;;;11.10;2.60;;;9.70;99.90;;;;;;5031723;28;20039;-58
2023/10/30 03:20:21;;;;;;;11.57;2.60;;;9.60;99.90;;;;;;5027181;28;20037;-57
2023/10/30 03:22:47;;;;;;;8.82;2.63;;;9.70;99.90;;;;;;4998490;28;20468;-55
2023/10/30 03:25:14;;;;;;;9.98;2.72;;;9.70;99.90;;;;;;5026182;28;20657;-56
2023/10/30 03:27:39;;;;;;;9.65;2.35;;;9.70;99.90;;;;;;5029591;28;20048;-57
2023/10/30 03:30:06;;;;;;;9.75;2.33;;;9.70;99.90;;;;;;5021094;28;20527;-57
2023/10/30 03:32:32;;;;;;;10.13;1.90;;;9.70;99.90;;;;;;5008584;28;20044;-56
2023/10/30 03:34:59;;;;;;;10.45;2.50;;;9.80;99.90;;;;;;5025259;28;20171;-58
2023/10/30 03:37:24;;;;;;;5.43;1.70;;;9.80;99.90;;;;;;5006934;28;20083;-58
2023/10/30 03:39:50;;;;;;;10.93;2.63;;;9.80;99.90;;;;;;4990454;28;20462;-57
2023/10/30 03:42:16;;;;;;;11.20;2.63;;;9.70;99.90;;;;;;5014444;28;20091;-57
2023/10/30 03:44:42;;;;;;;9.63;1.90;;;9.70;99.90;;;;;;5020756;28;20046;-57
2023/10/30 03:47:07;;;;;;;7.85;2.03;;;9.70;99.90;;;;;;5024635;28;20142;-57
2023/10/30 03:49:33;;;;;;;8.52;2.13;;;9.70;99.90;;;;;;5029076;28;20045;-58
2023/10/30 03:51:59;;;;;;;8.50;2.15;;;9.70;99.90;;;;;;5034498;28;20126;-57
2023/10/30 03:54:24;;;;;;;7.57;2.20;;;9.60;99.90;;;;;;5029402;28;20045;-56
2023/10/30 03:56:50;;;;;;;11.35;2.10;;;9.70;99.90;;;;;;5013188;28;20087;-57
2023/10/30 03:59:16;;;;;;;8.40;1.80;;;9.70;99.90;;;;;;5013110;28;20090;-57
2023/10/30 04:01:42;;;;;;;9.52;2.65;;;9.60;99.90;;;;;;5014029;28;20050;-56
2023/10/30 04:04:08;;;;;;;9.55;2.25;;;9.60;99.90;;;;;;5011818;28;20041;-57
2023/10/30 04:06:38;;;;;;;11.38;2.22;;;9.60;99.90;;;;;;5013175;28;20047;-57
2023/10/30 04:09:07;;;;;;;11.70;2.50;;;9.60;99.90;;;;;;5010122;28;20041;-57
2023/10/30 04:11:33;;;;;;;12.00;2.15;;;9.70;99.90;;;;;;5008379;28;20096;-55
2023/10/30 04:13:59;;;;;;;9.32;2.00;;;9.60;99.90;;;;;;5015007;28;20037;-56
2023/10/30 04:16:25;;;;;;;12.93;2.72;;;9.60;99.90;;;;;;5011778;28;20073;-58
2023/10/30 04:18:51;;;;;;;12.65;3.03;;;9.60;99.90;;;;;;5012425;28;20132;-57
2023/10/30 04:21:16;;;;;;;18.20;3.50;;;9.60;99.90;;;;;;5012421;28;20049;-56
2023/10/30 04:23:43;;;;;;;12.18;2.70;;;9.60;99.90;;;;;;5007937;28;20437;-58
2023/10/30 04:26:10;;;;;;;9.05;3.00;;;9.60;99.90;;;;;;5008524;28;20046;-57
2023/10/30 04:28:36;;;;;;;9.90;3.05;;;9.60;99.90;;;;;;5022135;28;20496;-57
2023/10/30 04:31:04;;;;;;;9.20;2.95;;;9.60;99.90;;;;;;5018246;28;20080;-58
2023/10/30 04:33:29;;;;;;;14.40;3.35;;;9.60;99.90;;;;;;5018981;28;20045;-57
2023/10/30 04:35:55;;;;;;;12.50;4.82;;;9.60;99.90;;;;;;5019396;28;20389;-58
2023/10/30 04:38:24;;;;;;;9.80;2.72;;;9.60;99.90;;;;;;5019050;28;20129;-56
2023/10/30 04:40:49;;;;;;;8.82;3.47;;;9.60;99.90;;;;;;5016300;28;20042;-58
2023/10/30 04:43:15;;;;;;;9.60;3.00;;;9.60;99.90;;;;;;5006887;28;20045;-58
2023/10/30 04:45:41;;;;;;;11.75;3.15;;;9.60;99.90;;;;;;5013515;28;20076;-56
2023/10/30 04:48:07;;;;;;;12.10;4.65;;;9.60;99.90;;;;;;5010472;28;20055;-57
2023/10/30 04:50:32;;;;;;;10.32;3.30;;;9.70;99.90;;;;;;5010154;28;20034;-58
2023/10/30 04:52:58;;;;;;;13.65;4.90;;;9.70;99.90;;;;;;5013437;28;20503;-57
2023/10/30 04:55:24;;;;;;;13.25;5.68;;;9.60;99.90;;;;;;5030006;28;20044;-56
2023/10/30 04:57:50;;;;;;;18.55;5.85;;;9.60;99.90;;;;;;5039764;28;20450;-58
2023/10/30 05:00:16;;;;;;;15.13;5.53;;;9.60;99.90;;;;;;5035984;28;20052;-57
2023/10/30 05:02:42;;;;;;;14.30;6.25;;;9.70;99.90;;;;;;5032416;28;20048;-58
2023/10/30 05:05:08;;;;;;;14.65;5.65;;;9.70;99.90;;;;;;5001540;28;20116;-57
2023/10/30 05:07:34;;;;;;;15.48;7.65;;;9.70;99.90;;;;;;5031347;28;20945;-57
2023/10/30 05:10:00;;;;;;;15.27;5.55;;;9.60;99.90;;;;;;5010125;28;20065;-58
2023/10/30 05:12:25;;;;;;;14.13;6.10;;;9.60;99.90;;;;;;5026116;28;20036;-57
2023/10/30 05:14:51;;;;;;;12.00;4.05;;;9.60;99.90;;;;;;5005872;28;20048;-58
2023/10/30 05:17:18;;;;;;;12.32;2.80;;;9.60;99.90;;;;;;5021042;28;20044;-58
2023/10/30 05:19:43;;;;;;;13.93;2.88;;;9.60;99.90;;;;;;5003803;28;20538;-56
2023/10/30 05:22:09;;;;;;;16.17;6.43;;;9.60;99.90;;;;;;5023535;28;20650;-56
2023/10/30 05:24:35;;;;;;;16.55;2.90;;;9.60;99.90;;;;;;5011045;28;20122;-58
2023/10/30 05:27:01;;;;;;;12.93;3.10;;;9.60;99.90;;;;;;5014150;28;20135;-57
2023/10/30 05:29:26;;;;;;;12.35;2.60;;;9.60;99.90;;;;;;5014923;28;20036;-56
2023/10/30 05:31:52;;;;;;;10.13;2.15;;;9.60;99.90;;;;;;5034168;28;20695;-58
2023/10/30 05:34:18;;;;;;;9.75;2.15;;;9.50;99.90;;;;;;5035611;28;20040;-58
2023/10/30 05:36:43;;;;;;;10.63;1.90;;;9.60;99.90;;;;;;5036060;28;20033;-56
2023/10/30 05:39:09;;;;;;;16.65;2.50;;;9.60;99.90;;;;;;5014564;28;20056;-58
2023/10/30 05:41:35;;;;;;;11.13;2.17;;;9.60;99.90;;;;;;5035996;28;20170;-57
2023/10/30 05:44:01;;;;;;;9.07;1.95;;;9.50;99.90;;;;;;5034809;28;20041;-57
2023/10/30 05:46:26;;;;;;;12.20;1.83;;;9.50;99.90;;;;;;5020586;28;21704;-57
2023/10/30 05:48:52;;;;;;;8.88;1.73;;;9.50;99.90;;;;;;5035958;28;20155;-57
2023/10/30 05:51:18;;;;;;;8.75;2.10;;;9.50;99.90;;;;;;5035107;28;20495;-57
2023/10/30 05:53:44;;;;;;;10.98;2.03;;;9.40;99.90;;;;;;5031119;28;20768;-56
2023/10/30 05:56:09;;;;;;;13.02;2.40;;;9.40;99.90;;;;;;5034572;28;20488;-58
2023/10/30 05:58:35;;;;;;;14.52;2.35;;;9.40;99.90;;;;;;5038467;28;20044;-58
2023/10/30 06:01:01;;;;;;;8.27;2.05;;;9.40;99.90;;;;;;5037462;28;21646;-57
2023/10/30 06:03:26;;;;;;;10.45;2.03;;;9.40;99.90;;;;;;5036435;28;20118;-57
2023/10/30 06:05:52;;;;;;;14.20;2.10;;;9.40;99.90;;;;;;5015889;28;21558;-57
2023/10/30 06:08:22;;;;;;;8.93;2.45;;;9.40;99.90;;;;;;4996514;28;20071;-56
2023/10/30 06:10:47;;;;;;;7.97;2.00;;;9.30;99.90;;;;;;5014206;28;20392;-58
2023/10/30 06:13:13;;;;;;;8.18;2.40;;;9.30;99.90;;;;;;5012292;28;20044;-57
2023/10/30 06:15:39;;;;;;;9.60;2.00;;;9.30;99.90;;;;;;5034252;28;20037;-57
2023/10/30 06:18:05;;;;;;;11.35;2.15;;;9.30;99.90;;;;;;5032731;28;20495;-57
2023/10/30 06:20:31;;;;;;;11.23;2.10;;;9.30;99.90;;;;;;5009213;28;20499;-57
2023/10/30 06:22:57;;;;;;;12.27;2.97;;;9.30;99.90;;;;;;5006187;28;20307;-58
2023/10/30 06:25:26;;;;;;;8.52;2.22;;;9.30;99.90;;;;;;5029145;28;20037;-56
2023/10/30 06:27:53;;;;;;;13.00;2.40;;;9.30;99.90;;;;;;5034277;28;20029;-57
2023/10/30 06:30:18;;;;;;;11.07;1.88;;;9.30;99.90;;;;;;5033659;28;20055;-58
2023/10/30 06:32:44;;;;;;;14.07;2.25;;;9.30;99.90;;;;;;5029533;28;20040;-57
2023/10/30 06:35:10;;;;;;;9.55;2.33;;;9.30;99.90;;;;;;5028683;28;20041;-58
2023/10/30 06:37:36;;;;;;;12.00;2.50;;;9.30;99.90;;;;;;4997335;28;20609;-57
2023/10/30 06:40:03;;;;;;;11.43;2.50;;;9.30;99.90;;;;;;5017765;28;20957;-58
2023/10/30 06:42:29;;;;;;;9.77;1.85;;;9.30;99.90;;;;;;5017577;28;20118;-58
2023/10/30 06:44:55;;;;;;;10.13;1.98;;;9.30;99.90;;;;;;5028824;28;20033;-57
2023/10/30 06:47:20;;;;;;;14.50;2.30;;;9.30;99.90;;;;;;5029815;28;20133;-57
2023/10/30 06:49:46;;;;;;;8.85;2.05;;;9.30;99.90;;;;;;5042155;28;20072;-58
2023/10/30 06:52:12;;;;;;;15.10;2.58;;;9.30;99.90;;;;;;5023294;28;20037;-57
2023/10/30 06:54:38;;;;;;;9.68;2.10;;;9.30;99.90;;;;;;5026556;28;20052;-57
2023/10/30 06:57:04;;;;;;;14.07;2.10;;;9.30;99.90;;;;;;5041526;28;20044;-58
2023/10/30 06:59:30;;;;;;;10.38;2.13;;;9.40;99.90;;;;;;5038937;28;20045;-55
2023/10/30 07:01:56;;;;;;;13.93;2.70;;;9.40;99.90;;;;;;5030574;28;20131;-57
2023/10/30 07:04:22;;;;;;;12.88;2.28;;;9.50;99.90;;;;;;5029890;28;20041;-59
2023/10/30 07:06:50;;;;;;;12.35;2.10;;;9.50;99.90;;;;;;5028321;28;20583;-58
2023/10/30 07:09:17;;;;;;;12.23;2.40;;;9.50;99.90;;;;;;5028003;28;20068;-58
2023/10/30 07:11:43;;;;;;;11.85;2.70;;;9.50;99.90;;;;;;5032814;28;20495;-59
2023/10/30 07:14:09;;;;;;;12.85;2.17;;;9.60;99.90;;;;;;5028879;28;20035;-58
2023/10/30 07:16:36;;;;;;;8.93;2.50;;;9.60;99.90;;;;;;5021415;28;20069;-58
2023/10/30 07:19:02;;;;;;;6.55;2.13;;;9.70;99.90;;;;;;5044131;28;20064;-58
2023/10/30 07:21:29;;;;;;;10.73;2.00;;;9.70;99.90;;;;;;5038090;28;20530;-57
2023/10/30 07:23:55;;;;;;;11.10;2.15;;;9.70;99.90;;;;;;5022634;28;20055;-57
2023/10/30 07:26:21;;;;;;;15.60;2.35;;;9.80;99.90;;;;;;5037570;28;20142;-58
2023/10/30 07:28:51;;;;;;;9.98;2.40;;;9.80;99.90;;;;;;5016828;28;20049;-58
2023/10/30 07:31:20;;;;;;;20.20;2.35;;;9.90;99.90;;;;;;5042640;28;20123;-58
2023/10/30 07:33:46;;;;;;;11.43;2.70;;;9.90;99.90;;;;;;5016899;28;20033;-58
2023/10/30 07:36:12;;;;;;;20.05;2.65;;;10.00;99.90;;;;;;5038753;28;20029;-58
2023/10/30 07:38:38;;;;;;;11.50;2.60;;;10.00;99.90;;;;;;5039285;28;20051;-58
2023/10/30 07:41:05;;;;;;;20.20;3.90;;;10.10;99.90;;;;;;5031561;28;20376;-57
2023/10/30 07:43:31;;;;;;;17.60;3.05;;;10.10;99.90;;;;;;5006083;28;20045;-59
2023/10/30 07:45:57;;;;;;;12.35;2.50;;;10.10;99.90;;;;;;5026488;28;20049;-58
2023/10/30 07:48:26;;;;;;;13.52;2.50;;;10.20;99.90;;;;;;5020086;28;20041;-59
2023/10/30 07:50:52;;;;;;;10.38;2.22;;;10.30;99.90;;;;;;5039071;28;20045;-59
2023/10/30 07:53:18;;;;;;;15.43;2.83;;;10.30;99.90;;;;;;5036990;28;20455;-56
2023/10/30 07:55:45;;;;;;;10.23;2.60;;;10.40;99.90;;;;;;5035718;28;20045;-59
2023/10/30 07:58:12;;;;;;;11.80;2.13;;;10.50;99.90;;;;;;5041458;28;20059;-58
2023/10/30 08:00:39;;;;;;;13.13;2.60;;;10.60;99.90;;;;;;5019094;28;20472;-58
2023/10/30 08:03:05;;;;;;;14.63;2.40;;;10.70;99.90;;;;;;5023083;28;20047;-58
2023/10/30 08:05:32;;;;;;;18.13;2.50;;;10.80;99.90;;;;;;5041013;28;20048;-57
2023/10/30 08:07:58;;;;;;;9.60;2.55;;;10.80;99.90;;;;;;5038551;28;20041;-58
2023/10/30 08:10:24;;;;;;;9.27;2.33;;;10.90;99.90;;;;;;5023070;28;20423;-58
2023/10/30 08:12:50;;;;;;;11.32;2.35;;;11.00;99.90;;;;;;5038517;28;20040;-58
2023/10/30 08:15:16;;;;;;;11.30;3.25;;;11.00;99.90;;;;;;5038725;28;20049;-58
2023/10/30 08:17:41;;;;;;;13.40;5.45;;;11.10;99.90;;;;;;5032926;28;20076;-57
2023/10/30 08:20:09;;;;;;;22.17;3.58;;;11.10;99.90;;;;;;5028487;28;20033;-59
2023/10/30 08:22:35;;;;;;;9.65;2.95;;;11.20;99.90;;;;;;5020184;28;20403;-59
2023/10/30 08:25:02;;;;;;;12.00;2.80;;;11.20;99.90;;;;;;5040746;28;20376;-59
2023/10/30 08:27:28;;;;;;;14.48;2.97;;;11.30;99.90;;;;;;5038161;28;20037;-58
2023/10/30 08:29:54;;;;;;;9.85;2.53;;;11.30;99.90;;;;;;5039772;28;20519;-58
2023/10/30 08:32:20;;;;;;;12.90;2.50;;;11.40;99.90;;;;;;5017849;28;20037;-58
2023/10/30 08:34:45;;;;;;;11.85;3.63;;;11.50;99.90;;;;;;5040375;28;20068;-58
2023/10/30 08:37:11;;;;;;;17.23;4.10;;;11.50;99.90;;;;;;5035179;28;20544;-58
2023/10/30 08:39:37;;;;;;;22.15;5.93;;;11.60;99.90;;;;;;5037609;28;20119;-59
2023/10/30 08:42:04;;;;;;;14.57;4.70;;;11.60;99.90;;;;;;5040146;28;20044;-58
2023/10/30 08:44:31;;;;;;;14.18;5.22;;;11.70;99.90;;;;;;5035919;28;20131;-58
2023/10/30 08:46:57;;;;;;;17.00;5.75;;;11.80;99.90;;;;;;5017723;28;20349;-58
2023/10/30 08:49:23;;;;;;;18.75;6.25;;;11.90;99.90;;;;;;5031834;28;20077;-57
2023/10/30 08:51:49;;;;;;;12.10;4.57;;;12.00;99.90;;;;;;5039615;28;20115;-59
2023/10/30 08:54:15;;;;;;;12.85;4.03;;;12.00;99.90;;;;;;5030793;28;20159;-58
2023/10/30 08:56:42;;;;;;;14.98;3.35;;;12.10;99.90;;;;;;5015430;28;20049;-59
2023/10/30 08:59:08;;;;;;;17.58;4.32;;;12.20;99.90;;;;;;5037736;28;20052;-59
2023/10/30 09:01:34;;;;;;;14.10;4.25;;;12.20;99.90;;;;;;5022562;28;20748;-59
2023/10/30 09:04:00;;;;;;;13.65;3.55;;;12.30;99.90;;;;;;5038260;28;20091;-58
2023/10/30 09:06:28;;;;;;;12.25;2.97;;;12.40;99.90;;;;;;5034281;28;20037;-60
2023/10/30 09:08:54;;;;;;;16.42;3.33;;;12.50;99.90;;;;;;5018277;28;20045;-58
2023/10/30 09:11:21;;;;;;;9.77;3.83;;;12.60;99.90;;;;;;5037658;28;21120;-59
2023/10/30 09:13:47;;;;;;;11.70;3.92;;;12.70;99.90;;;;;;5035416;28;20037;-58
2023/10/30 09:16:13;;;;;;;13.10;3.67;;;12.80;99.90;;;;;;5037239;28;20037;-59
2023/10/30 09:18:38;;;;;;;18.73;4.13;;;12.90;99.90;;;;;;5034715;28;20052;-58
2023/10/30 09:21:05;;;;;;;14.95;4.65;;;12.90;99.90;;;;;;5043740;28;20055;-58
2023/10/30 09:23:30;;;;;;;14.07;4.43;;;12.90;99.90;;;;;;5041927;28;20055;-59
2023/10/30 09:25:56;;;;;;;16.58;3.35;;;12.90;99.90;;;;;;5042923;28;20044;-57
2023/10/30 09:28:22;;;;;;;13.70;3.72;;;12.90;99.90;;;;;;5042570;28;20079;-58
2023/10/30 09:30:47;;;;;;;12.52;4.50;;;13.00;99.90;;;;;;5035276;28;20039;-57
2023/10/30 09:33:13;;;;;;;17.05;3.92;;;13.00;99.90;;;;;;5040159;28;20033;-59
2023/10/30 09:35:39;;;;;;;10.20;2.90;;;12.90;99.90;;;;;;5039239;28;20037;-59
2023/10/30 09:38:04;;;;;;;13.27;2.33;;;12.90;99.90;;;;;;5042044;28;20437;-59
2023/10/30 09:40:30;;;;;;;13.48;2.80;;;12.90;99.90;;;;;;5041096;28;20044;-59
2023/10/30 09:42:58;;;;;;;11.85;3.00;;;12.90;99.90;;;;;;5043428;28;20037;-58
2023/10/30 09:45:25;;;;;;;14.55;3.97;;;12.90;99.90;;;;;;5040672;28;20048;-58
2023/10/30 09:47:56;;;;;;;12.32;3.20;;;13.00;99.90;;;;;;5039064;28;20466;-58
2023/10/30 09:50:24;;;;;;;16.15;4.85;;;13.10;99.90;;;;;;5040858;28;20079;-59
2023/10/30 09:52:54;;;;;;;12.57;4.07;;;13.20;99.90;;;;;;5023898;28;21301;-57
2023/10/30 09:55:24;;;;;;;14.88;4.28;;;13.40;99.90;;;;;;5034500;28;21186;-59
2023/10/30 09:57:51;;;;;;;18.17;4.57;;;13.50;99.90;;;;;;5029493;28;20045;-58
2023/10/30 10:00:18;;;;;;;9.05;3.15;;;13.70;99.90;;;;;;5033826;28;20504;-59
2023/10/30 10:02:44;;;;;;;11.82;3.30;;;13.80;99.90;;;;;;5032061;28;20053;-59
2023/10/30 10:05:16;;;;;;;12.07;2.75;;;13.90;99.90;;;;;;5032834;28;20708;-58
2023/10/30 10:07:42;;;;;;;13.05;3.15;;;14.00;99.90;;;;;;5017123;28;20063;-59
2023/10/30 10:10:08;;;;;;;16.13;3.28;;;14.00;99.90;;;;;;5032132;28;20056;-59
2023/10/30 10:12:35;;;;;;;11.07;3.25;;;14.10;99.90;;;;;;5028827;28;20069;-57
2023/10/30 10:15:07;;;;;;;14.00;2.70;;;14.20;99.90;;;;;;5010769;28;20391;-58
2023/10/30 10:17:48;;;;;;;11.82;2.67;;;14.30;99.90;;;;;;5028564;28;20045;-59
2023/10/30 10:20:14;;;;;;;13.75;2.60;;;14.50;99.90;;;;;;5036856;28;20044;-58
2023/10/30 10:22:40;;;;;;;11.68;3.17;;;14.60;99.90;;;;;;5043782;28;20044;-59
2023/10/30 10:25:18;;;;;;;13.90;2.95;;;14.60;99.90;;;;;;5039696;28;20120;-59
2023/10/30 10:27:44;;;;;;;10.43;2.08;;;14.60;99.90;;;;;;5021935;28;20047;-58
2023/10/30 10:30:10;;;;;;;13.40;2.70;;;14.70;99.90;;;;;;5040821;28;20102;-58
2023/10/30 10:32:37;;;;;;;11.05;2.63;;;14.70;99.90;;;;;;5040216;28;20037;-58
2023/10/30 10:35:06;;;;;;;12.23;2.80;;;14.80;99.90;;;;;;5041776;28;20071;-58
2023/10/30 10:37:33;;;;;;;12.18;2.33;;;15.00;99.90;;;;;;5037975;28;20491;-58
2023/10/30 10:39:59;;;;;;;9.35;2.22;;;15.20;99.90;;;;;;5039383;28;20060;-59
2023/10/30 10:42:27;;;;;;;11.45;2.30;;;15.40;99.90;;;;;;5041553;28;20048;-59
2023/10/30 10:44:55;;;;;;;9.00;2.38;;;15.60;99.90;;;;;;5042147;28;20044;-59
2023/10/30 10:47:22;;;;;;;9.18;2.30;;;15.70;99.90;;;;;;5041803;28;20483;-59
2023/10/30 10:49:50;;;;;;;14.93;2.90;;;15.60;99.90;;;;;;5044676;28;20399;-59
2023/10/30 10:52:17;;;;;;;10.50;3.33;;;15.60;99.90;;;;;;5039816;28;20052;-59
2023/10/30 10:54:58;;;;;;;12.02;2.80;;;15.50;99.90;;;;;;5024246;28;20053;-58
2023/10/30 10:57:27;;;;;;;10.77;2.15;;;15.40;99.90;;;;;;5035762;28;20053;-58
2023/10/30 11:00:00;;;;;;;10.63;2.88;;;15.40;99.90;;;;;;5042307;28;20041;-58
2023/10/30 11:02:30;;;;;;;9.38;3.22;;;15.30;99.90;;;;;;5034495;28;21064;-58
2023/10/30 11:04:58;;;;;;;13.02;2.67;;;15.20;99.90;;;;;;5024772;28;20044;-59
2023/10/30 11:07:44;;;;;;;10.13;2.80;;;15.20;99.90;;;;;;5038279;28;20045;-57
2023/10/30 11:10:20;;;;;;;12.18;2.70;;;15.10;99.90;;;;;;5026625;28;20049;-59
2023/10/30 11:12:55;;;;;;;14.77;4.13;;;15.10;99.90;;;;;;5032671;28;20123;-58
2023/10/30 11:15:30;;;;;;;11.75;2.88;;;15.10;99.90;;;;;;5012864;28;20076;-59
2023/10/30 11:18:21;;;;;;;7.82;2.90;;;15.20;99.90;;;;;;5029489;28;20076;-58
2023/10/30 11:20:52;;;;;;;9.10;2.88;;;15.30;99.90;;;;;;5031268;28;20638;-58
2023/10/30 11:23:44;;;;;;;12.13;2.58;;;15.40;99.90;;;;;;5031078;28;20059;-59
2023/10/30 11:26:33;;;;;;;12.63;2.38;;;15.30;99.90;;;;;;5024309;28;20044;-58
2023/10/30 11:28:59;;;;;;;9.93;3.03;;;15.20;99.90;;;;;;5019819;28;20529;-58
2023/10/30 11:31:29;;;;;;;14.40;2.92;;;15.30;99.90;;;;;;5026526;28;20452;-58
2023/10/30 11:34:31;;;;;;;14.00;2.85;;;15.40;99.90;;;;;;5031040;28;20082;-58
2023/10/30 11:37:04;;;;;;;12.27;3.97;;;15.50;99.90;;;;;;5000122;28;20140;-59
2023/10/30 11:39:32;;;;;;;;;;;15.70;99.90;;;;;;5011789;28;20063;-59
2023/10/30 11:41:58;;;;;;;14.60;2.83;;;15.80;99.90;;;;;;5030374;28;19924;-58
2023/10/30 11:44:30;;;;;;;19.52;2.60;;;15.70;99.90;;;;;;5030417;28;20045;-59
2023/10/30 11:46:57;;;;;;;12.82;2.22;;;15.60;99.90;;;;;;5013879;28;20086;-59
2023/10/30 11:49:29;;;;;;;21.33;3.30;;;15.50;99.90;;;;;;5031421;28;20036;-59
2023/10/30 11:51:56;;;;;;;12.32;2.55;;;15.50;99.90;;;;;;5030342;28;20041;-58
2023/10/30 11:54:34;;;;;;;15.18;3.90;;;15.40;99.90;;;;;;5033676;28;20060;-59
2023/10/30 11:57:01;;;;;;;9.60;3.28;;;15.40;99.90;;;;;;5032192;28;20584;-58
2023/10/30 11:59:27;;;;;;;15.07;4.05;;;15.50;99.90;;;;;;5030378;28;20159;-58
2023/10/30 12:01:56;;;;;;;22.27;3.80;;;15.60;99.90;;;;;;5029290;28;20068;-59
2023/10/30 12:04:23;;;;;;;11.70;2.67;;;15.70;99.90;;;;;;5033412;28;20068;-59
2023/10/30 12:06:49;;;;;;;11.52;2.22;;;15.60;99.90;;;;;;5032236;28;20564;-58
2023/10/30 12:09:16;;;;;;;10.38;3.20;;;15.60;99.90;;;;;;5031176;28;20036;-59
2023/10/30 12:11:42;;;;;;;11.25;2.40;;;15.50;99.90;;;;;;5005596;28;20044;-59
2023/10/30 12:14:08;;;;;;;10.82;2.83;;;15.60;99.90;;;;;;5037314;28;20037;-59
2023/10/30 12:16:34;;;;;;;12.13;2.70;;;15.60;99.90;;;;;;5014176;28;20040;-59
2023/10/30 12:19:01;;;;;;;10.00;3.15;;;15.60;99.90;;;;;;5030289;28;20048;-59
2023/10/30 12:21:29;;;;;;;14.68;2.60;;;15.60;99.90;;;;;;5024141;28;20055;-59
2023/10/30 12:23:57;;;;;;;13.85;2.58;;;15.60;99.90;;;;;;5034435;28;20091;-59
2023/10/30 12:26:23;;;;;;;16.92;2.92;;;15.60;99.90;;;;;;5029679;28;20053;-58
2023/10/30 12:28:49;;;;;;;11.18;2.70;;;15.60;99.90;;;;;;5037499;28;20641;-58
2023/10/30 12:31:23;;;;;;;15.82;3.00;;;15.50;99.90;;;;;;5032530;28;20033;-59
2023/10/30 12:34:16;;;;;;;12.98;3.47;;;15.40;99.90;;;;;;5016533;28;20036;-58
2023/10/30 12:36:41;;;;;;;;;;;15.30;99.90;;;;;;5033960;28;20044;-58
2023/10/30 12:39:18;;;;;;;9.88;2.47;;;15.20;99.90;;;;;;5013105;28;19920;-59
2023/10/30 12:41:45;;;;;;;12.05;2.58;;;15.10;99.90;;;;;;5032069;28;20552;-58
2023/10/30 12:44:15;;;;;;;19.15;3.42;;;15.00;99.90;;;;;;5018532;28;20102;-58